Latest Coastal Weather Observations for Cape Flattery

IDQ60701

Issued at 4:21 am EST Monday 23 January 2017 (issued every 10 minutes, with the page automatically refreshed every 10 minutes)

About coastal observations | Map of coastal stations | Coastal observations for QLD | Marine services | Other Formats
Station Details ID: 031213 Name: CAPE FLATTERY Lat: -14.97 Lon: 145.31 Height: 18.5 m
Data from the previous 72 hours. | See also: Recent months at Cape Flattery
Date/Time
EST
Temp
°C
Wind Pressure Rain since
9am
mm
Weather Cloud Vis
km
Sea
Height
m
Swell
Dir  Spd
kts
Gust
kts
hPa Trend Height
m
Period
s
Dir
23/04:00am 26.2 E 5 5 1008.2 - 0.0 - - - - - - -
23/03:30am 26.2 E 6 6 1007.9 - 0.0 - - - - - - -
23/03:00am 26.2 ESE 4 5 1008.1 - 0.0 - - - - - - -
23/02:30am 26.4 E 4 5 1008.3 - 0.0 - - - - - - -
23/02:00am 26.2 ESE 4 6 1008.3 - 0.0 - - - - - - -
23/01:30am 26.1 NE 3 4 1008.8 - 0.0 - - - - - - -
23/01:00am 25.9 NE 2 3 1009.3 - 0.0 - - - - - - -
23/12:30am 26.8 ENE 4 5 1009.5 - 0.0 - - - - - - -
23/12:00am 26.9 ENE 5 6 1009.9 - 0.0 - - - - - - -
 
Date/Time
EST
Temp
°C
Wind Pressure Rain since
9am
mm
Weather Cloud Vis
km
Sea
Height
m
Swell
Dir  Spd
kts
Gust
kts
hPa Trend Height
m
Period
s
Dir
22/11:30pm 26.8 ENE 5 6 1010.2 - 0.0 - - - - - - -
22/11:00pm 26.7 E 5 6 1010.4 - 0.0 - - - - - - -
22/10:30pm 26.7 E 5 7 1010.4 - 0.0 - - - - - - -
22/10:00pm 26.9 E 5 6 1010.2 - 0.0 - - - - - - -
22/09:30pm 27.0 E 6 6 1010.2 - 0.0 - - - - - - -
22/09:00pm 27.0 E 5 6 1010.0 - 0.0 - - - - - - -
22/08:30pm 27.0 E 4 4 1009.7 - 0.0 - - - - - - -
22/08:00pm 27.2 E 4 5 1009.5 - 0.0 - - - - - - -
22/07:30pm 27.7 E 4 5 1009.1 - 0.0 - - - - - - -
22/07:00pm 28.9 ENE 4 5 1008.7 - 0.0 - - - - - - -
22/06:30pm 29.6 NE 6 8 1008.3 - 0.0 - - - - - - -
22/06:00pm 31.0 NE 5 8 1007.7 - 0.0 - - - - - - -
22/05:30pm 31.3 N 7 9 1007.4 - 0.0 - - - - - - -
22/05:00pm 31.4 N 10 14 1007.0 - 0.0 - - - - - - -
22/04:30pm 31.9 N 11 15 1006.7 - 0.0 - - - - - - -
22/04:00pm 32.4 N 10 15 1006.8 - 0.0 - - - - - - -
22/03:30pm 32.4 N 10 14 1007.1 - 0.0 - - - - - - -
22/03:00pm 32.9 N 9 14 1007.4 - 0.0 - - - - - - -
22/02:30pm 32.4 N 12 16 1007.7 - 0.0 - - - - - - -
22/02:00pm 32.5 N 11 16 1007.9 - 0.0 - - - - - - -
22/01:30pm 33.0 N 11 15 1008.2 - 0.0 - - - - - - -
22/01:00pm 33.3 N 11 15 1008.2 - 0.0 - - - - - - -
22/12:30pm 33.0 N 10 15 1008.7 - 0.0 - - - - - - -
22/12:00pm 31.7 N 12 15 1009.1 - 0.0 - - - - - - -
22/11:30am 31.9 N 12 15 1009.5 - 0.0 - - - - - - -
22/11:00am 32.1 N 11 13 1009.7 - 0.0 - - - - - - -
22/10:30am 31.2 N 9 12 1009.8 - 0.0 - - - - - - -
22/10:00am 31.3 N 9 11 1010.1 - 0.0 - - - - - - -
22/09:30am 30.5 NNW 8 11 1010.1 - 0.0 - - - - - - -
22/09:00am 30.7 N 7 10 1010.1 - 0.0 - - - - - - -
22/08:30am 29.6 NNW 6 8 1009.9 - 0.0 - - - - - - -
22/08:00am 28.8 NW 5 6 1009.6 - 0.0 - - - - - - -
22/07:30am 27.3 W 2 3 1009.5 - 0.0 - - - - - - -
22/07:00am 25.3 WSW 2 4 1009.3 - 0.0 - - - - - - -
22/06:30am 24.3 NW 1 4 1009.2 - 0.0 - - - - - - -
22/06:00am 23.6 CALM 0 0 1008.7 - 0.0 - - - - - - -
22/05:30am 24.0 ESE 3 4 1008.3 - 0.0 - - - - - - -
22/05:00am 23.9 SE 3 5 1008.0 - 0.0 - - - - - - -
22/04:30am 23.5 SSE 1 4 1008.0 - 0.0 - - - - - - -
22/04:00am 24.0 E 2 4 1007.8 - 0.0 - - - - - - -
22/03:30am 24.0 SE 3 4 1007.8 - 0.0 - - - - - - -
22/03:00am 24.2 SE 3 4 1007.7 - 0.0 - - - - - - -
22/02:30am 24.1 SE 4 5 1007.7 - 0.0 - - - - - - -
22/02:00am 24.5 SE 3 5 1007.8 - 0.0 - - - - - - -
22/01:30am 24.3 S 3 4 1008.0 - 0.0 - - - - - - -
22/01:00am 24.5 CALM 0 0 1008.2 - 0.0 - - - - - - -
22/12:30am 24.7 CALM 0 3 1008.6 - 0.0 - - - - - - -
22/12:00am 24.9 SE 4 5 1008.8 - 0.0 - - - - - - -
 
Date/Time
EST
Temp
°C
Wind Pressure Rain since
9am
mm
Weather Cloud Vis
km
Sea
Height
m
Swell
Dir  Spd
kts
Gust
kts
hPa Trend Height
m
Period
s
Dir
21/11:30pm 25.4 ESE 4 5 1009.0 - 0.0 - - - - - - -
21/11:00pm 25.6 SSE 3 4 1009.2 - 0.0 - - - - - - -
21/10:30pm 26.2 CALM 0 0 1009.5 - 0.0 - - - - - - -
21/10:00pm 27.1 WNW 6 7 1009.3 - 0.0 - - - - - - -
21/09:30pm 27.7 WNW 8 11 1009.3 - 0.0 - - - - - - -
21/09:00pm 28.4 NW 11 15 1009.1 - 0.0 - - - - - - -
21/08:30pm 30.0 NNW 15 19 1008.8 - 0.0 - - - - - - -
21/08:00pm 30.2 NNW 14 18 1008.4 - 0.0 - - - - - - -
21/07:30pm 30.2 NNW 14 18 1008.2 - 0.0 - - - - - - -
21/07:00pm 30.2 NNW 13 17 1007.7 - 0.0 - - - - - - -
21/06:30pm 30.2 NNW 13 17 1007.7 - 0.0 - - - - - - -
21/06:00pm 30.1 N 10 13 1007.1 - 0.0 - - - - - - -
21/05:30pm 30.1 N 11 14 1006.8 - 0.0 - - - - - - -
21/05:00pm 31.0 N 11 16 1006.4 - 0.0 - - - - - - -
21/04:30pm 31.5 N 12 16 1005.8 - 0.0 - - - - - - -
21/04:00pm 31.9 N 12 16 1005.8 - 0.0 - - - - - - -
21/03:30pm 31.9 N 11 15 1006.1 - 0.0 - - - - - - -
21/03:00pm 32.4 N 11 14 1006.4 - 0.0 - - - - - - -
21/02:30pm 31.8 N 10 15 1006.9 - 0.0 - - - - - - -
21/02:00pm 32.2 N 9 12 1007.2 - 0.0 - - - - - - -
21/01:30pm 32.1 N 10 13 1007.7 - 0.0 - - - - - - -
21/01:00pm 32.8 N 10 14 1008.1 - 0.0 - - - - - - -
21/12:30pm 31.3 N 9 13 1008.5 - 0.0 - - - - - - -
21/12:00pm 31.7 NNE 8 11 1008.8 - 0.0 - - - - - - -
21/11:30am 32.8 SE 7 11 1009.3 - 0.0 - - - - - - -
21/11:00am 33.2 WSW 6 10 1009.8 - 0.0 - - - - - - -
21/10:30am 32.8 WSW 6 9 1010.1 - 0.0 - - - - - - -
21/10:00am 31.4 SW 4 7 1010.4 - 0.0 - - - - - - -
21/09:30am 30.5 WSW 6 10 1010.5 - 0.0 - - - - - - -
21/09:00am 29.9 SW 8 11 1010.5 - 0.0 - - - - - - -
21/08:30am 29.9 WSW 6 8 1010.4 - 0.0 - - - - - - -
21/08:00am 29.3 W 6 9 1010.4 - 0.0 - - - - - - -
21/07:30am 27.8 W 2 4 1010.3 - 0.0 - - - - - - -
21/07:00am 26.8 CALM 0 0 1010.0 - 0.0 - - - - - - -
21/06:30am 25.6 WNW 2 3 1009.8 - 0.0 - - - - - - -
21/06:00am 24.9 WSW 5 6 1009.5 - 0.0 - - - - - - -
21/05:30am 24.9 CALM 0 0 1008.8 - 0.0 - - - - - - -
21/05:00am 25.0 CALM 0 0 1008.4 - 0.0 - - - - - - -
21/04:30am 25.1 CALM 0 0 1007.9 - 0.0 - - - - - - -
21/04:00am 25.2 SSE 2 3 1007.8 - 0.0 - - - - - - -
21/03:30am 25.3 CALM 0 0 1007.8 - 0.0 - - - - - - -
21/03:00am 25.4 CALM 0 0 1007.8 - 0.0 - - - - - - -
21/02:30am 25.7 WSW 1 3 1007.9 - 0.0 - - - - - - -
21/02:00am 25.8 CALM 0 0 1008.1 - 0.0 - - - - - - -
21/01:30am 25.7 CALM 0 0 1008.2 - 0.0 - - - - - - -
21/01:00am 26.1 CALM 0 1 1008.1 - 0.0 - - - - - - -
21/12:30am 26.6 CALM 0 1 1008.1 - 0.0 - - - - - - -
21/12:00am 27.8 WNW 4 5 1008.4 - 0.0 - - - - - - -
 
Date/Time
EST
Temp
°C
Wind Pressure Rain since
9am
mm
Weather Cloud Vis
km
Sea
Height
m
Swell
Dir  Spd
kts
Gust
kts
hPa Trend Height
m
Period
s
Dir
20/11:30pm 28.4 N 5 7 1008.4 - 0.0 - - - - - - -
20/11:00pm 28.8 NNW 7 9 1008.6 - 0.0 - - - - - - -
20/10:30pm 29.1 NNW 7 10 1008.7 - 0.0 - - - - - - -
20/10:00pm 29.2 N 7 10 1008.6 - 0.0 - - - - - - -
20/09:30pm 29.3 N 9 11 1008.5 - 0.0 - - - - - - -
20/09:00pm 29.2 N 8 10 1008.5 - 0.0 - - - - - - -
20/08:30pm 29.3 N 8 11 1008.2 - 0.0 - - - - - - -
20/08:00pm 29.3 N 8 11 1008.0 - 0.0 - - - - - - -
20/07:30pm 29.4 N 8 11 1008.0 - 0.0 - - - - - - -
20/07:00pm 29.4 N 9 14 1007.7 - 0.0 - - - - - - -
20/06:30pm 29.7 NNE 8 12 1007.6 - 0.0 - - - - - - -
20/06:00pm 30.5 NNE 8 11 1007.1 - 0.0 - - - - - - -
20/05:30pm 31.1 N 8 11 1006.8 - 0.0 - - - - - - -
20/05:00pm 31.2 NNE 9 13 1006.4 - 0.0 - - - - - - -
20/04:30pm 31.3 NNE 11 14 1006.0 - 0.0 - - - - - - -
20/04:00pm 31.8 NE 10 13 1006.2 - 0.0 - - - - - - -
20/03:30pm 32.1 NE 10 14 1006.5 - 0.0 - - - - - - -
20/03:00pm 31.7 NE 10 15 1006.8 - 0.0 - - - - - - -
20/02:30pm 32.1 NE 10 14 1007.2 - 0.0 - - - - - - -
20/02:00pm 32.0 NE 11 15 1007.4 - 0.0 - - - - - - -
20/01:30pm 32.0 NNE 10 14 1007.6 - 0.0 - - - - - - -
20/01:00pm 32.1 NE 11 15 1008.0 - 0.0 - - - - - - -
20/12:30pm 31.0 NNE 9 11 1008.3 - 0.0 - - - - - - -
20/12:00pm 30.6 NE 6 8 1008.4 - 0.0 - - - - - - -
20/11:30am 33.1 N 7 11 1008.5 - 0.0 - - - - - - -
20/11:00am 32.0 N 6 9 1008.8 - 0.0 - - - - - - -
20/10:30am 31.2 NW 4 8 1009.3 - 0.0 - - - - - - -
20/10:00am 30.5 WSW 5 9 1009.7 - 0.0 - - - - - - -
20/09:30am 31.1 SW 6 10 1010.0 - 0.0 - - - - - - -
20/09:00am 30.4 WSW 6 8 1010.3 - 0.0 - - - - - - -
20/08:30am 29.7 W 5 7 1010.3 - 0.0 - - - - - - -
20/08:00am 28.8 WSW 5 6 1010.3 - 0.0 - - - - - - -
20/07:30am 26.9 SW 4 5 1010.0 - 0.0 - - - - - - -
20/07:00am 25.3 CALM 0 2 1009.6 - 0.0 - - - - - - -
20/06:30am 23.9 CALM 0 2 1009.1 - 0.0 - - - - - - -
20/06:00am 23.3 CALM 0 0 1008.6 - 0.0 - - - - - - -
20/05:30am 23.2 CALM 0 0 1008.1 - 0.0 - - - - - - -
20/05:00am 23.5 CALM 0 3 1007.7 - 0.0 - - - - - - -
20/04:30am 23.7 CALM 0 0 1007.5 - 0.0 - - - - - - -

Other Formats:

Comma delimited format used in spreadsheet applications
http://www.bom.gov.au/fwo/IDQ60701/IDQ60701.94188.axf

JavaScript Object Notation format (JSON) in row-major order
http://www.bom.gov.au/fwo/IDQ60701/IDQ60701.94188.json